sensor_id;sensor_type;location;lat;lon;timestamp;temperature;humidity
75380;HTU21D;65641;44.714;37.756;2024-01-06T00:00:24;8.66;87.14
75380;HTU21D;65641;44.714;37.756;2024-01-06T00:01:28;8.64;87.22
75380;HTU21D;65641;44.714;37.756;2024-01-06T00:02:32;8.63;87.15
75380;HTU21D;65641;44.714;37.756;2024-01-06T00:03:36;8.63;87.22
75380;HTU21D;65641;44.714;37.756;2024-01-06T00:04:40;8.62;87.22
75380;HTU21D;65641;44.714;37.756;2024-01-06T00:05:44;8.61;87.30
75380;HTU21D;65641;44.714;37.756;2024-01-06T00:06:48;8.60;87.21
75380;HTU21D;65641;44.714;37.756;2024-01-06T00:07:52;8.60;87.22
75380;HTU21D;65641;44.714;37.756;2024-01-06T00:08:56;8.59;87.23
75380;HTU21D;65641;44.714;37.756;2024-01-06T00:10:00;8.59;87.32
75380;HTU21D;65641;44.714;37.756;2024-01-06T00:11:05;8.58;87.25
75380;HTU21D;65641;44.714;37.756;2024-01-06T00:12:09;8.58;87.21
75380;HTU21D;65641;44.714;37.756;2024-01-06T00:13:13;8.58;87.25
75380;HTU21D;65641;44.714;37.756;2024-01-06T00:14:17;8.57;87.21
75380;HTU21D;65641;44.714;37.756;2024-01-06T00:15:21;8.59;87.33
75380;HTU21D;65641;44.714;37.756;2024-01-06T00:16:25;8.57;87.20
75380;HTU21D;65641;44.714;37.756;2024-01-06T00:17:31;8.58;87.27
75380;HTU21D;65641;44.714;37.756;2024-01-06T00:18:36;8.57;87.12
75380;HTU21D;65641;44.714;37.756;2024-01-06T00:19:40;8.57;87.24
75380;HTU21D;65641;44.714;37.756;2024-01-06T00:20:44;8.56;87.12
75380;HTU21D;65641;44.714;37.756;2024-01-06T00:21:48;8.55;87.13
75380;HTU21D;65641;44.714;37.756;2024-01-06T00:22:52;8.53;87.15
75380;HTU21D;65641;44.714;37.756;2024-01-06T00:23:57;8.55;87.12
75380;HTU21D;65641;44.714;37.756;2024-01-06T00:25:01;8.53;87.12
75380;HTU21D;65641;44.714;37.756;2024-01-06T00:26:07;8.53;87.07
75380;HTU21D;65641;44.714;37.756;2024-01-06T00:27:12;8.53;87.09
75380;HTU21D;65641;44.714;37.756;2024-01-06T00:28:17;8.55;87.09
75380;HTU21D;65641;44.714;37.756;2024-01-06T00:29:20;8.53;87.02
75380;HTU21D;65641;44.714;37.756;2024-01-06T00:30:24;8.52;87.07
75380;HTU21D;65641;44.714;37.756;2024-01-06T00:31:28;8.51;87.11
75380;HTU21D;65641;44.714;37.756;2024-01-06T00:32:32;8.51;87.06
75380;HTU21D;65641;44.714;37.756;2024-01-06T00:33:39;8.49;87.13
75380;HTU21D;65641;44.714;37.756;2024-01-06T00:34:43;8.51;87.19
75380;HTU21D;65641;44.714;37.756;2024-01-06T00:35:47;8.50;87.15
75380;HTU21D;65641;44.714;37.756;2024-01-06T00:36:50;8.50;87.17
75380;HTU21D;65641;44.714;37.756;2024-01-06T00:37:54;8.49;87.22
75380;HTU21D;65641;44.714;37.756;2024-01-06T00:38:58;8.49;87.11
75380;HTU21D;65641;44.714;37.756;2024-01-06T00:40:02;8.49;87.03
75380;HTU21D;65641;44.714;37.756;2024-01-06T00:41:05;8.48;87.11
75380;HTU21D;65641;44.714;37.756;2024-01-06T00:42:09;8.48;87.10
75380;HTU21D;65641;44.714;37.756;2024-01-06T00:43:13;8.48;87.14
75380;HTU21D;65641;44.714;37.756;2024-01-06T00:44:16;8.46;87.06
75380;HTU21D;65641;44.714;37.756;2024-01-06T00:45:20;8.46;87.19
75380;HTU21D;65641;44.714;37.756;2024-01-06T00:46:23;8.47;87.20
75380;HTU21D;65641;44.714;37.756;2024-01-06T00:47:27;8.47;87.03
75380;HTU21D;65641;44.714;37.756;2024-01-06T00:48:30;8.47;87.06
75380;HTU21D;65641;44.714;37.756;2024-01-06T00:49:34;8.47;87.09
75380;HTU21D;65641;44.714;37.756;2024-01-06T00:50:38;8.45;87.01
75380;HTU21D;65641;44.714;37.756;2024-01-06T00:51:42;8.44;87.03
75380;HTU21D;65641;44.714;37.756;2024-01-06T00:52:45;8.44;87.09
75380;HTU21D;65641;44.714;37.756;2024-01-06T00:53:49;8.45;87.07
75380;HTU21D;65641;44.714;37.756;2024-01-06T00:54:52;8.43;86.95
75380;HTU21D;65641;44.714;37.756;2024-01-06T00:55:56;8.43;87.08
75380;HTU21D;65641;44.714;37.756;2024-01-06T00:56:59;8.42;87.08
75380;HTU21D;65641;44.714;37.756;2024-01-06T00:58:03;8.43;87.11
75380;HTU21D;65641;44.714;37.756;2024-01-06T00:59:07;8.42;87.11
75380;HTU21D;65641;44.714;37.756;2024-01-06T01:00:12;8.42;87.08
75380;HTU21D;65641;44.714;37.756;2024-01-06T01:01:16;8.43;87.12
75380;HTU21D;65641;44.714;37.756;2024-01-06T01:02:19;8.44;87.13
75380;HTU21D;65641;44.714;37.756;2024-01-06T01:03:23;8.42;87.02
75380;HTU21D;65641;44.714;37.756;2024-01-06T01:04:26;8.43;87.05
75380;HTU21D;65641;44.714;37.756;2024-01-06T01:05:30;8.43;86.99
75380;HTU21D;65641;44.714;37.756;2024-01-06T01:06:33;8.42;86.90
75380;HTU21D;65641;44.714;37.756;2024-01-06T01:07:39;8.42;86.90
75380;HTU21D;65641;44.714;37.756;2024-01-06T01:08:43;8.43;86.98
75380;HTU21D;65641;44.714;37.756;2024-01-06T01:09:46;8.41;87.00
75380;HTU21D;65641;44.714;37.756;2024-01-06T01:10:50;8.42;86.94
75380;HTU21D;65641;44.714;37.756;2024-01-06T01:11:53;8.41;86.96
75380;HTU21D;65641;44.714;37.756;2024-01-06T01:12:57;8.42;86.93
75380;HTU21D;65641;44.714;37.756;2024-01-06T01:14:01;8.39;86.87
75380;HTU21D;65641;44.714;37.756;2024-01-06T01:15:05;8.38;86.84
75380;HTU21D;65641;44.714;37.756;2024-01-06T01:16:08;8.38;86.91
75380;HTU21D;65641;44.714;37.756;2024-01-06T01:17:12;8.37;86.94
75380;HTU21D;65641;44.714;37.756;2024-01-06T01:18:15;8.36;86.94
75380;HTU21D;65641;44.714;37.756;2024-01-06T01:19:19;8.37;86.86
75380;HTU21D;65641;44.714;37.756;2024-01-06T01:20:23;8.37;86.87
75380;HTU21D;65641;44.714;37.756;2024-01-06T01:21:26;8.36;86.86
75380;HTU21D;65641;44.714;37.756;2024-01-06T01:22:30;8.34;86.77
75380;HTU21D;65641;44.714;37.756;2024-01-06T01:23:33;8.34;86.83
75380;HTU21D;65641;44.714;37.756;2024-01-06T01:24:37;8.33;86.90
75380;HTU21D;65641;44.714;37.756;2024-01-06T01:25:41;8.31;86.75
75380;HTU21D;65641;44.714;37.756;2024-01-06T01:26:44;8.31;86.78
75380;HTU21D;65641;44.714;37.756;2024-01-06T01:27:48;8.32;86.66
75380;HTU21D;65641;44.714;37.756;2024-01-06T01:28:52;8.30;86.72
75380;HTU21D;65641;44.714;37.756;2024-01-06T01:29:56;8.29;86.64
75380;HTU21D;65641;44.714;37.756;2024-01-06T01:31:00;8.29;86.70
75380;HTU21D;65641;44.714;37.756;2024-01-06T01:32:05;8.27;86.61
75380;HTU21D;65641;44.714;37.756;2024-01-06T01:33:09;8.27;86.72
75380;HTU21D;65641;44.714;37.756;2024-01-06T01:34:13;8.26;86.60
75380;HTU21D;65641;44.714;37.756;2024-01-06T01:35:17;8.23;86.67
75380;HTU21D;65641;44.714;37.756;2024-01-06T01:36:21;8.21;86.68
75380;HTU21D;65641;44.714;37.756;2024-01-06T01:37:25;8.21;86.66
75380;HTU21D;65641;44.714;37.756;2024-01-06T01:38:29;8.21;86.72
75380;HTU21D;65641;44.714;37.756;2024-01-06T01:39:32;8.20;86.78
75380;HTU21D;65641;44.714;37.756;2024-01-06T01:40:36;8.19;86.80
75380;HTU21D;65641;44.714;37.756;2024-01-06T01:41:40;8.19;86.67
75380;HTU21D;65641;44.714;37.756;2024-01-06T01:42:44;8.18;86.78
75380;HTU21D;65641;44.714;37.756;2024-01-06T01:43:48;8.18;86.75
75380;HTU21D;65641;44.714;37.756;2024-01-06T01:44:52;8.18;86.81
75380;HTU21D;65641;44.714;37.756;2024-01-06T01:45:56;8.19;86.76
75380;HTU21D;65641;44.714;37.756;2024-01-06T01:47:02;8.18;86.75
75380;HTU21D;65641;44.714;37.756;2024-01-06T01:48:08;8.18;86.62
75380;HTU21D;65641;44.714;37.756;2024-01-06T01:49:12;8.17;86.54
75380;HTU21D;65641;44.714;37.756;2024-01-06T01:50:16;8.17;86.66
75380;HTU21D;65641;44.714;37.756;2024-01-06T01:51:21;8.17;86.52
75380;HTU21D;65641;44.714;37.756;2024-01-06T01:52:25;8.14;86.58
75380;HTU21D;65641;44.714;37.756;2024-01-06T01:53:29;8.14;86.68
75380;HTU21D;65641;44.714;37.756;2024-01-06T01:54:34;8.16;86.66
75380;HTU21D;65641;44.714;37.756;2024-01-06T01:55:39;8.14;86.66
75380;HTU21D;65641;44.714;37.756;2024-01-06T01:56:43;8.14;86.61
75380;HTU21D;65641;44.714;37.756;2024-01-06T01:57:47;8.13;86.66
75380;HTU21D;65641;44.714;37.756;2024-01-06T01:58:52;8.13;86.60
75380;HTU21D;65641;44.714;37.756;2024-01-06T01:59:56;8.12;86.64
75380;HTU21D;65641;44.714;37.756;2024-01-06T02:01:01;8.11;86.67
75380;HTU21D;65641;44.714;37.756;2024-01-06T02:02:06;8.11;86.54
75380;HTU21D;65641;44.714;37.756;2024-01-06T02:03:13;8.09;86.67
75380;HTU21D;65641;44.714;37.756;2024-01-06T02:04:17;8.09;86.73
75380;HTU21D;65641;44.714;37.756;2024-01-06T02:05:21;8.09;86.60
75380;HTU21D;65641;44.714;37.756;2024-01-06T02:06:25;8.09;86.64
75380;HTU21D;65641;44.714;37.756;2024-01-06T02:07:29;8.09;86.74
75380;HTU21D;65641;44.714;37.756;2024-01-06T02:08:33;8.08;86.67
75380;HTU21D;65641;44.714;37.756;2024-01-06T02:09:36;8.08;86.73
75380;HTU21D;65641;44.714;37.756;2024-01-06T02:10:41;8.07;86.65
75380;HTU21D;65641;44.714;37.756;2024-01-06T02:11:44;8.07;86.68
75380;HTU21D;65641;44.714;37.756;2024-01-06T02:12:49;8.06;86.65
75380;HTU21D;65641;44.714;37.756;2024-01-06T02:13:55;8.07;86.60
75380;HTU21D;65641;44.714;37.756;2024-01-06T02:14:59;8.06;86.69
75380;HTU21D;65641;44.714;37.756;2024-01-06T02:16:03;8.07;86.70
75380;HTU21D;65641;44.714;37.756;2024-01-06T02:17:08;8.06;86.74
75380;HTU21D;65641;44.714;37.756;2024-01-06T02:18:12;8.05;86.60
75380;HTU21D;65641;44.714;37.756;2024-01-06T02:19:16;8.05;86.66
75380;HTU21D;65641;44.714;37.756;2024-01-06T02:20:21;8.04;86.64
75380;HTU21D;65641;44.714;37.756;2024-01-06T02:21:31;8.03;86.64
75380;HTU21D;65641;44.714;37.756;2024-01-06T02:22:36;8.03;86.54
75380;HTU21D;65641;44.714;37.756;2024-01-06T02:23:40;8.03;86.66
75380;HTU21D;65641;44.714;37.756;2024-01-06T02:24:44;8.02;86.77
75380;HTU21D;65641;44.714;37.756;2024-01-06T02:25:48;8.02;86.74
75380;HTU21D;65641;44.714;37.756;2024-01-06T02:26:51;8.02;86.63
75380;HTU21D;65641;44.714;37.756;2024-01-06T02:27:55;8.02;86.61
75380;HTU21D;65641;44.714;37.756;2024-01-06T02:28:59;8.00;86.65
75380;HTU21D;65641;44.714;37.756;2024-01-06T02:30:06;8.01;86.57
75380;HTU21D;65641;44.714;37.756;2024-01-06T02:31:10;8.01;86.49
75380;HTU21D;65641;44.714;37.756;2024-01-06T02:32:15;7.99;86.61
75380;HTU21D;65641;44.714;37.756;2024-01-06T02:33:19;7.99;86.51
75380;HTU21D;65641;44.714;37.756;2024-01-06T02:34:26;7.99;86.38
75380;HTU21D;65641;44.714;37.756;2024-01-06T02:35:30;7.97;86.41
75380;HTU21D;65641;44.714;37.756;2024-01-06T02:36:34;7.96;86.30
75380;HTU21D;65641;44.714;37.756;2024-01-06T02:37:38;7.94;86.49
75380;HTU21D;65641;44.714;37.756;2024-01-06T02:38:42;7.94;86.45
75380;HTU21D;65641;44.714;37.756;2024-01-06T02:39:46;7.93;86.43
75380;HTU21D;65641;44.714;37.756;2024-01-06T02:40:50;7.92;86.43
75380;HTU21D;65641;44.714;37.756;2024-01-06T02:41:54;7.91;86.50
75380;HTU21D;65641;44.714;37.756;2024-01-06T02:42:58;7.90;86.44
75380;HTU21D;65641;44.714;37.756;2024-01-06T02:44:03;7.88;86.32
75380;HTU21D;65641;44.714;37.756;2024-01-06T02:45:08;7.89;86.42
75380;HTU21D;65641;44.714;37.756;2024-01-06T02:46:13;7.87;86.28
75380;HTU21D;65641;44.714;37.756;2024-01-06T02:47:17;7.85;86.32
75380;HTU21D;65641;44.714;37.756;2024-01-06T02:48:21;7.85;86.49
75380;HTU21D;65641;44.714;37.756;2024-01-06T02:49:25;7.83;86.41
75380;HTU21D;65641;44.714;37.756;2024-01-06T02:50:29;7.82;86.41
75380;HTU21D;65641;44.714;37.756;2024-01-06T02:51:33;7.82;86.40
75380;HTU21D;65641;44.714;37.756;2024-01-06T02:52:37;7.81;86.40
75380;HTU21D;65641;44.714;37.756;2024-01-06T02:53:40;7.81;86.35
75380;HTU21D;65641;44.714;37.756;2024-01-06T02:54:44;7.79;86.33
75380;HTU21D;65641;44.714;37.756;2024-01-06T02:55:49;7.77;86.32
75380;HTU21D;65641;44.714;37.756;2024-01-06T02:56:54;7.78;86.43
75380;HTU21D;65641;44.714;37.756;2024-01-06T02:57:58;7.77;86.38
75380;HTU21D;65641;44.714;37.756;2024-01-06T02:59:02;7.76;86.38
75380;HTU21D;65641;44.714;37.756;2024-01-06T03:00:07;7.75;86.48
75380;HTU21D;65641;44.714;37.756;2024-01-06T03:01:11;7.75;86.50
75380;HTU21D;65641;44.714;37.756;2024-01-06T03:02:16;7.75;86.46
75380;HTU21D;65641;44.714;37.756;2024-01-06T03:03:20;7.75;86.46
75380;HTU21D;65641;44.714;37.756;2024-01-06T03:04:24;7.75;86.38
75380;HTU21D;65641;44.714;37.756;2024-01-06T03:05:28;7.75;86.47
75380;HTU21D;65641;44.714;37.756;2024-01-06T03:06:32;7.75;86.52
75380;HTU21D;65641;44.714;37.756;2024-01-06T03:07:37;7.76;86.41
75380;HTU21D;65641;44.714;37.756;2024-01-06T03:08:41;7.75;86.53
75380;HTU21D;65641;44.714;37.756;2024-01-06T03:09:44;7.74;86.39
75380;HTU21D;65641;44.714;37.756;2024-01-06T03:10:49;7.74;86.41
75380;HTU21D;65641;44.714;37.756;2024-01-06T03:11:53;7.75;86.21
75380;HTU21D;65641;44.714;37.756;2024-01-06T03:12:57;7.72;86.24
75380;HTU21D;65641;44.714;37.756;2024-01-06T03:14:01;7.72;86.28
75380;HTU21D;65641;44.714;37.756;2024-01-06T03:15:06;7.72;86.19
75380;HTU21D;65641;44.714;37.756;2024-01-06T03:16:11;7.72;86.31
75380;HTU21D;65641;44.714;37.756;2024-01-06T03:17:16;7.71;86.28
75380;HTU21D;65641;44.714;37.756;2024-01-06T03:18:20;7.71;86.34
75380;HTU21D;65641;44.714;37.756;2024-01-06T03:19:24;7.71;86.35
75380;HTU21D;65641;44.714;37.756;2024-01-06T03:20:31;7.70;86.40
75380;HTU21D;65641;44.714;37.756;2024-01-06T03:21:35;7.70;86.30
75380;HTU21D;65641;44.714;37.756;2024-01-06T03:22:38;7.70;86.26
75380;HTU21D;65641;44.714;37.756;2024-01-06T03:23:43;7.69;86.25
75380;HTU21D;65641;44.714;37.756;2024-01-06T03:24:46;7.70;86.28
75380;HTU21D;65641;44.714;37.756;2024-01-06T03:25:51;7.68;86.14
75380;HTU21D;65641;44.714;37.756;2024-01-06T03:26:55;7.68;86.25
75380;HTU21D;65641;44.714;37.756;2024-01-06T03:27:59;7.67;86.32
75380;HTU21D;65641;44.714;37.756;2024-01-06T03:29:02;7.65;86.31
75380;HTU21D;65641;44.714;37.756;2024-01-06T03:30:06;7.68;86.32
75380;HTU21D;65641;44.714;37.756;2024-01-06T03:31:10;7.65;86.29
75380;HTU21D;65641;44.714;37.756;2024-01-06T03:32:14;7.65;86.25
75380;HTU21D;65641;44.714;37.756;2024-01-06T03:33:18;7.65;86.33
75380;HTU21D;65641;44.714;37.756;2024-01-06T03:34:21;7.65;86.44
75380;HTU21D;65641;44.714;37.756;2024-01-06T03:35:25;7.64;86.34
75380;HTU21D;65641;44.714;37.756;2024-01-06T03:36:28;7.65;86.50
75380;HTU21D;65641;44.714;37.756;2024-01-06T03:37:33;7.65;86.34
75380;HTU21D;65641;44.714;37.756;2024-01-06T03:38:36;7.65;86.41
75380;HTU21D;65641;44.714;37.756;2024-01-06T03:39:40;7.65;86.27
75380;HTU21D;65641;44.714;37.756;2024-01-06T03:40:44;7.64;86.32
75380;HTU21D;65641;44.714;37.756;2024-01-06T03:41:48;7.64;86.45
75380;HTU21D;65641;44.714;37.756;2024-01-06T03:42:51;7.65;86.35
75380;HTU21D;65641;44.714;37.756;2024-01-06T03:43:59;7.67;86.31
75380;HTU21D;65641;44.714;37.756;2024-01-06T03:45:03;7.65;86.37
75380;HTU21D;65641;44.714;37.756;2024-01-06T03:46:07;7.67;86.41
75380;HTU21D;65641;44.714;37.756;2024-01-06T03:47:10;7.64;86.25
75380;HTU21D;65641;44.714;37.756;2024-01-06T03:48:14;7.65;86.25
75380;HTU21D;65641;44.714;37.756;2024-01-06T03:49:18;7.64;86.35
75380;HTU21D;65641;44.714;37.756;2024-01-06T03:50:24;7.64;86.30
75380;HTU21D;65641;44.714;37.756;2024-01-06T03:51:27;7.64;86.27
75380;HTU21D;65641;44.714;37.756;2024-01-06T03:52:31;7.63;86.43
75380;HTU21D;65641;44.714;37.756;2024-01-06T03:53:39;7.63;86.30
75380;HTU21D;65641;44.714;37.756;2024-01-06T03:54:45;7.63;86.55
75380;HTU21D;65641;44.714;37.756;2024-01-06T03:55:49;7.64;86.27
75380;HTU21D;65641;44.714;37.756;2024-01-06T03:56:53;7.63;86.42
75380;HTU21D;65641;44.714;37.756;2024-01-06T03:57:57;7.64;86.26
75380;HTU21D;65641;44.714;37.756;2024-01-06T03:59:00;7.64;86.32
75380;HTU21D;65641;44.714;37.756;2024-01-06T04:00:04;7.64;86.22
75380;HTU21D;65641;44.714;37.756;2024-01-06T04:01:08;7.64;86.42
75380;HTU21D;65641;44.714;37.756;2024-01-06T04:02:12;7.64;86.37
75380;HTU21D;65641;44.714;37.756;2024-01-06T04:03:15;7.65;86.35
75380;HTU21D;65641;44.714;37.756;2024-01-06T04:04:19;7.64;86.23
75380;HTU21D;65641;44.714;37.756;2024-01-06T04:05:26;7.67;86.28
75380;HTU21D;65641;44.714;37.756;2024-01-06T04:06:34;7.65;86.32
75380;HTU21D;65641;44.714;37.756;2024-01-06T04:07:38;7.65;86.37
75380;HTU21D;65641;44.714;37.756;2024-01-06T04:08:42;7.64;86.26
75380;HTU21D;65641;44.714;37.756;2024-01-06T04:09:45;7.67;86.32
75380;HTU21D;65641;44.714;37.756;2024-01-06T04:10:50;7.68;86.34
75380;HTU21D;65641;44.714;37.756;2024-01-06T04:11:53;7.67;86.29
75380;HTU21D;65641;44.714;37.756;2024-01-06T04:12:56;7.67;86.23
75380;HTU21D;65641;44.714;37.756;2024-01-06T04:14:00;7.67;86.36
75380;HTU21D;65641;44.714;37.756;2024-01-06T04:15:04;7.67;86.23
75380;HTU21D;65641;44.714;37.756;2024-01-06T04:16:07;7.67;86.34
75380;HTU21D;65641;44.714;37.756;2024-01-06T04:17:11;7.68;86.18
75380;HTU21D;65641;44.714;37.756;2024-01-06T04:18:17;7.68;86.18
75380;HTU21D;65641;44.714;37.756;2024-01-06T04:19:21;7.65;86.02
75380;HTU21D;65641;44.714;37.756;2024-01-06T04:20:25;7.65;86.22
75380;HTU21D;65641;44.714;37.756;2024-01-06T04:21:28;7.64;86.12
75380;HTU21D;65641;44.714;37.756;2024-01-06T04:22:32;7.63;86.28
75380;HTU21D;65641;44.714;37.756;2024-01-06T04:23:36;7.63;86.22
75380;HTU21D;65641;44.714;37.756;2024-01-06T04:24:39;7.63;86.30
75380;HTU21D;65641;44.714;37.756;2024-01-06T04:25:44;7.63;86.23
75380;HTU21D;65641;44.714;37.756;2024-01-06T04:26:48;7.63;86.31
75380;HTU21D;65641;44.714;37.756;2024-01-06T04:27:52;7.65;86.16
75380;HTU21D;65641;44.714;37.756;2024-01-06T04:28:55;7.65;86.19
75380;HTU21D;65641;44.714;37.756;2024-01-06T04:30:02;7.63;86.09
75380;HTU21D;65641;44.714;37.756;2024-01-06T04:31:06;7.62;86.18
75380;HTU21D;65641;44.714;37.756;2024-01-06T04:32:14;7.62;86.16
75380;HTU21D;65641;44.714;37.756;2024-01-06T04:33:17;7.61;86.00
75380;HTU21D;65641;44.714;37.756;2024-01-06T04:34:21;7.59;86.06
75380;HTU21D;65641;44.714;37.756;2024-01-06T04:35:25;7.59;86.09
75380;HTU21D;65641;44.714;37.756;2024-01-06T04:36:29;7.58;86.03
75380;HTU21D;65641;44.714;37.756;2024-01-06T04:37:33;7.58;86.01
75380;HTU21D;65641;44.714;37.756;2024-01-06T04:38:36;7.57;85.99
75380;HTU21D;65641;44.714;37.756;2024-01-06T04:39:40;7.56;85.96
75380;HTU21D;65641;44.714;37.756;2024-01-06T04:40:44;7.55;86.00
75380;HTU21D;65641;44.714;37.756;2024-01-06T04:41:48;7.54;86.01
75380;HTU21D;65641;44.714;37.756;2024-01-06T04:42:51;7.53;86.19
75380;HTU21D;65641;44.714;37.756;2024-01-06T04:43:55;7.54;85.97
75380;HTU21D;65641;44.714;37.756;2024-01-06T04:44:59;7.53;86.09
75380;HTU21D;65641;44.714;37.756;2024-01-06T04:46:02;7.52;86.05
75380;HTU21D;65641;44.714;37.756;2024-01-06T04:47:06;7.50;86.03
75380;HTU21D;65641;44.714;37.756;2024-01-06T04:48:10;7.50;86.03
75380;HTU21D;65641;44.714;37.756;2024-01-06T04:49:14;7.49;86.03
75380;HTU21D;65641;44.714;37.756;2024-01-06T04:50:17;7.49;86.01
75380;HTU21D;65641;44.714;37.756;2024-01-06T04:51:21;7.48;86.00
75380;HTU21D;65641;44.714;37.756;2024-01-06T04:52:25;7.48;85.93
75380;HTU21D;65641;44.714;37.756;2024-01-06T04:53:29;7.48;86.01
75380;HTU21D;65641;44.714;37.756;2024-01-06T04:54:32;7.46;86.00
75380;HTU21D;65641;44.714;37.756;2024-01-06T04:55:36;7.46;86.26
75380;HTU21D;65641;44.714;37.756;2024-01-06T04:56:40;7.46;86.19
75380;HTU21D;65641;44.714;37.756;2024-01-06T04:57:43;7.46;86.28
75380;HTU21D;65641;44.714;37.756;2024-01-06T04:58:47;7.46;86.29
75380;HTU21D;65641;44.714;37.756;2024-01-06T04:59:51;7.48;86.25
75380;HTU21D;65641;44.714;37.756;2024-01-06T05:00:54;7.49;86.29
75380;HTU21D;65641;44.714;37.756;2024-01-06T05:01:58;7.50;86.19
75380;HTU21D;65641;44.714;37.756;2024-01-06T05:03:02;7.50;86.29
75380;HTU21D;65641;44.714;37.756;2024-01-06T05:04:06;7.53;86.29
75380;HTU21D;65641;44.714;37.756;2024-01-06T05:05:09;7.52;86.36
75380;HTU21D;65641;44.714;37.756;2024-01-06T05:06:13;7.54;86.28
75380;HTU21D;65641;44.714;37.756;2024-01-06T05:07:17;7.57;86.13
75380;HTU21D;65641;44.714;37.756;2024-01-06T05:08:21;7.58;86.25
75380;HTU21D;65641;44.714;37.756;2024-01-06T05:09:25;7.59;86.04
75380;HTU21D;65641;44.714;37.756;2024-01-06T05:10:29;7.59;86.02
75380;HTU21D;65641;44.714;37.756;2024-01-06T05:11:33;7.60;85.85
75380;HTU21D;65641;44.714;37.756;2024-01-06T05:12:37;7.59;85.91
75380;HTU21D;65641;44.714;37.756;2024-01-06T05:13:40;7.59;85.79
75380;HTU21D;65641;44.714;37.756;2024-01-06T05:14:44;7.60;85.84
75380;HTU21D;65641;44.714;37.756;2024-01-06T05:15:47;7.61;85.76
75380;HTU21D;65641;44.714;37.756;2024-01-06T05:16:51;7.60;85.69
75380;HTU21D;65641;44.714;37.756;2024-01-06T05:17:55;7.60;85.80
75380;HTU21D;65641;44.714;37.756;2024-01-06T05:18:59;7.61;85.76
75380;HTU21D;65641;44.714;37.756;2024-01-06T05:20:03;7.61;85.67
75380;HTU21D;65641;44.714;37.756;2024-01-06T05:21:07;7.61;85.64
75380;HTU21D;65641;44.714;37.756;2024-01-06T05:22:11;7.62;85.71
75380;HTU21D;65641;44.714;37.756;2024-01-06T05:23:15;7.63;85.71
75380;HTU21D;65641;44.714;37.756;2024-01-06T05:24:18;7.64;85.80
75380;HTU21D;65641;44.714;37.756;2024-01-06T05:25:22;7.67;85.68
75380;HTU21D;65641;44.714;37.756;2024-01-06T05:26:26;7.68;85.68
75380;HTU21D;65641;44.714;37.756;2024-01-06T05:27:30;7.68;85.71
75380;HTU21D;65641;44.714;37.756;2024-01-06T05:28:33;7.71;85.60
75380;HTU21D;65641;44.714;37.756;2024-01-06T05:29:37;7.71;85.67
75380;HTU21D;65641;44.714;37.756;2024-01-06T05:30:41;7.73;85.59
75380;HTU21D;65641;44.714;37.756;2024-01-06T05:31:44;7.77;85.64
75380;HTU21D;65641;44.714;37.756;2024-01-06T05:32:50;7.79;85.51
75380;HTU21D;65641;44.714;37.756;2024-01-06T05:33:54;7.82;85.39
75380;HTU21D;65641;44.714;37.756;2024-01-06T05:34:57;7.83;85.47
75380;HTU21D;65641;44.714;37.756;2024-01-06T05:36:02;7.86;85.47
75380;HTU21D;65641;44.714;37.756;2024-01-06T05:37:05;7.88;85.37
75380;HTU21D;65641;44.714;37.756;2024-01-06T05:38:09;7.90;85.32
75380;HTU21D;65641;44.714;37.756;2024-01-06T05:39:12;7.91;85.24
75380;HTU21D;65641;44.714;37.756;2024-01-06T05:40:16;7.94;85.19
75380;HTU21D;65641;44.714;37.756;2024-01-06T05:41:20;7.98;85.16
75380;HTU21D;65641;44.714;37.756;2024-01-06T05:42:23;8.01;85.03
75380;HTU21D;65641;44.714;37.756;2024-01-06T05:43:27;8.02;84.97
75380;HTU21D;65641;44.714;37.756;2024-01-06T05:44:31;8.02;84.97
75380;HTU21D;65641;44.714;37.756;2024-01-06T05:45:34;8.04;84.93
75380;HTU21D;65641;44.714;37.756;2024-01-06T05:46:38;8.06;84.81
75380;HTU21D;65641;44.714;37.756;2024-01-06T05:47:42;8.07;84.87
75380;HTU21D;65641;44.714;37.756;2024-01-06T05:48:46;8.11;84.78
75380;HTU21D;65641;44.714;37.756;2024-01-06T05:49:49;8.12;84.84
75380;HTU21D;65641;44.714;37.756;2024-01-06T05:50:53;8.15;84.70
75380;HTU21D;65641;44.714;37.756;2024-01-06T05:51:57;8.17;84.65
75380;HTU21D;65641;44.714;37.756;2024-01-06T05:53:01;8.18;84.64
75380;HTU21D;65641;44.714;37.756;2024-01-06T05:54:05;8.20;84.67
75380;HTU21D;65641;44.714;37.756;2024-01-06T05:55:12;8.22;84.61
75380;HTU21D;65641;44.714;37.756;2024-01-06T05:56:27;8.26;84.49
75380;HTU21D;65641;44.714;37.756;2024-01-06T05:57:31;8.28;84.50
75380;HTU21D;65641;44.714;37.756;2024-01-06T05:58:35;8.30;84.40
75380;HTU21D;65641;44.714;37.756;2024-01-06T05:59:39;8.32;84.32
75380;HTU21D;65641;44.714;37.756;2024-01-06T06:00:43;8.34;84.29
75380;HTU21D;65641;44.714;37.756;2024-01-06T06:01:49;8.37;84.22
75380;HTU21D;65641;44.714;37.756;2024-01-06T06:02:52;8.38;84.19
75380;HTU21D;65641;44.714;37.756;2024-01-06T06:03:56;8.39;84.16
75380;HTU21D;65641;44.714;37.756;2024-01-06T06:05:00;8.43;84.11
75380;HTU21D;65641;44.714;37.756;2024-01-06T06:06:04;8.44;84.06
75380;HTU21D;65641;44.714;37.756;2024-01-06T06:07:08;8.47;84.07
75380;HTU21D;65641;44.714;37.756;2024-01-06T06:08:12;8.49;84.03
75380;HTU21D;65641;44.714;37.756;2024-01-06T06:09:15;8.50;84.01
75380;HTU21D;65641;44.714;37.756;2024-01-06T06:10:19;8.53;83.97
75380;HTU21D;65641;44.714;37.756;2024-01-06T06:11:23;8.56;83.89
75380;HTU21D;65641;44.714;37.756;2024-01-06T06:12:27;8.59;83.86
75380;HTU21D;65641;44.714;37.756;2024-01-06T06:13:31;8.62;83.75
75380;HTU21D;65641;44.714;37.756;2024-01-06T06:14:35;8.64;83.72
75380;HTU21D;65641;44.714;37.756;2024-01-06T06:15:38;8.68;83.68
75380;HTU21D;65641;44.714;37.756;2024-01-06T06:16:42;8.70;83.65
75380;HTU21D;65641;44.714;37.756;2024-01-06T06:17:45;8.74;83.57
75380;HTU21D;65641;44.714;37.756;2024-01-06T06:18:49;8.76;83.48
75380;HTU21D;65641;44.714;37.756;2024-01-06T06:19:53;8.78;83.50
75380;HTU21D;65641;44.714;37.756;2024-01-06T06:20:57;8.81;83.49
75380;HTU21D;65641;44.714;37.756;2024-01-06T06:22:00;8.85;83.38
75380;HTU21D;65641;44.714;37.756;2024-01-06T06:23:04;8.88;83.29
75380;HTU21D;65641;44.714;37.756;2024-01-06T06:24:08;8.90;83.25
75380;HTU21D;65641;44.714;37.756;2024-01-06T06:25:12;8.93;83.17
75380;HTU21D;65641;44.714;37.756;2024-01-06T06:26:16;8.98;83.12
75380;HTU21D;65641;44.714;37.756;2024-01-06T06:27:19;9.00;83.03
75380;HTU21D;65641;44.714;37.756;2024-01-06T06:28:23;9.04;82.87
75380;HTU21D;65641;44.714;37.756;2024-01-06T06:29:27;9.07;82.89
75380;HTU21D;65641;44.714;37.756;2024-01-06T06:30:32;9.09;82.85
75380;HTU21D;65641;44.714;37.756;2024-01-06T06:31:36;9.14;82.78
75380;HTU21D;65641;44.714;37.756;2024-01-06T06:32:40;9.17;82.68
75380;HTU21D;65641;44.714;37.756;2024-01-06T06:33:43;9.20;82.62
75380;HTU21D;65641;44.714;37.756;2024-01-06T06:34:47;9.23;82.54
75380;HTU21D;65641;44.714;37.756;2024-01-06T06:35:51;9.29;82.45
75380;HTU21D;65641;44.714;37.756;2024-01-06T06:36:55;9.31;82.41
75380;HTU21D;65641;44.714;37.756;2024-01-06T06:37:59;9.35;82.24